Time;durP1;ratioP1;P1;durP2;ratioP2;P2;SDS_P1;SDS_P2;PMS_P1;PMS_P2;Temp;Humidity;BMP_temperature;BMP_pressure;BME280_temperature;BME280_humidity;BME280_pressure;Samples;Min_cycle;Max_cycle;Signal;HPM_P1;HPM_P2
2023/03/21 00:00:21;;;;;;;5.10;5.00;;;;;;;;;;4191239;28;20278;-60
2023/03/21 00:02:41;;;;;;;4.50;4.40;;;;;;;;;;4192233;28;20048;-59
2023/03/21 00:05:01;;;;;;;4.72;4.55;;;;;;;;;;4191774;28;20240;-59
2023/03/21 00:07:35;;;;;;;4.40;4.30;;;;;;;;;;4193512;28;20078;-59
2023/03/21 00:09:55;;;;;;;5.90;5.68;;;;;;;;;;4191435;28;20052;-59
2023/03/21 00:12:24;;;;;;;6.40;6.13;;;;;;;;;;4191224;28;20085;-59
2023/03/21 00:14:44;;;;;;;6.10;5.88;;;;;;;;;;4189449;28;20256;-59
2023/03/21 00:17:05;;;;;;;5.25;5.00;;;;;;;;;;4190220;28;20048;-60
2023/03/21 00:19:27;;;;;;;4.82;3.85;;;;;;;;;;4189812;28;20083;-60
2023/03/21 00:21:51;;;;;;;4.18;4.07;;;;;;;;;;4190003;28;20044;-59
2023/03/21 00:24:27;;;;;;;4.75;4.65;;;;;;;;;;4189727;28;20068;-60
2023/03/21 00:26:47;;;;;;;3.58;3.38;;;;;;;;;;4190774;28;20051;-59
2023/03/21 00:29:07;;;;;;;4.90;4.80;;;;;;;;;;4190983;28;20055;-59
2023/03/21 00:31:27;;;;;;;4.72;4.47;;;;;;;;;;4189982;28;20049;-60
2023/03/21 00:33:47;;;;;;;4.50;4.40;;;;;;;;;;4190263;28;20043;-59
2023/03/21 00:36:08;;;;;;;4.50;4.18;;;;;;;;;;4191689;28;20048;-59
2023/03/21 00:38:29;;;;;;;4.40;4.30;;;;;;;;;;4190663;28;20413;-59
2023/03/21 00:40:49;;;;;;;4.50;4.30;;;;;;;;;;4191560;28;20048;-59
2023/03/21 00:43:11;;;;;;;4.28;4.05;;;;;;;;;;4191260;28;20116;-59
2023/03/21 00:45:31;;;;;;;4.82;4.68;;;;;;;;;;4190841;28;20048;-60
2023/03/21 00:47:51;;;;;;;4.28;4.18;;;;;;;;;;4190160;28;20235;-59
2023/03/21 00:50:12;;;;;;;5.10;4.75;;;;;;;;;;4190834;28;20048;-59
2023/03/21 00:52:32;;;;;;;4.88;4.78;;;;;;;;;;4191860;28;20117;-59
2023/03/21 00:55:01;;;;;;;4.00;3.90;;;;;;;;;;4190072;28;20048;-60
2023/03/21 00:57:21;;;;;;;3.90;3.70;;;;;;;;;;4193879;28;20228;-60
2023/03/21 00:59:52;;;;;;;4.25;4.15;;;;;;;;;;4192065;28;20044;-59
2023/03/21 01:02:13;;;;;;;3.60;3.50;;;;;;;;;;4192539;28;20359;-59
2023/03/21 01:04:34;;;;;;;3.47;2.90;;;;;;;;;;4192177;28;20121;-60
2023/03/21 01:06:55;;;;;;;3.50;3.40;;;;;;;;;;4192386;28;20052;-60
2023/03/21 01:09:16;;;;;;;2.90;2.90;;;;;;;;;;4192047;28;20051;-60
2023/03/21 01:11:37;;;;;;;4.20;3.97;;;;;;;;;;4190909;28;20052;-60
2023/03/21 01:13:57;;;;;;;4.40;4.30;;;;;;;;;;4194213;28;20095;-60
2023/03/21 01:16:35;;;;;;;4.00;3.90;;;;;;;;;;4189518;28;20079;-60
2023/03/21 01:18:55;;;;;;;7.60;7.03;;;;;;;;;;4189982;28;20115;-60
2023/03/21 01:21:16;;;;;;;10.02;9.23;;;;;;;;;;4192437;28;20052;-60
2023/03/21 01:23:36;;;;;;;5.15;5.05;;;;;;;;;;4194327;28;20118;-60
2023/03/21 01:25:56;;;;;;;5.95;5.78;;;;;;;;;;4189653;28;20113;-60
2023/03/21 01:28:17;;;;;;;4.18;4.07;;;;;;;;;;4189581;28;20104;-60
2023/03/21 01:30:37;;;;;;;4.18;4.07;;;;;;;;;;4192779;28;20051;-60
2023/03/21 01:33:02;;;;;;;5.22;4.93;;;;;;;;;;4189210;28;20082;-60
2023/03/21 01:35:22;;;;;;;4.10;3.92;;;;;;;;;;4190097;28;20119;-60
2023/03/21 01:37:43;;;;;;;4.63;4.32;;;;;;;;;;4190061;28;20244;-60
2023/03/21 01:40:04;;;;;;;5.30;5.20;;;;;;;;;;4189391;28;20071;-60
2023/03/21 01:42:24;;;;;;;4.60;4.43;;;;;;;;;;4189511;28;20147;-60
2023/03/21 01:44:58;;;;;;;4.57;4.47;;;;;;;;;;4188231;28;20044;-60
2023/03/21 01:47:18;;;;;;;3.92;3.83;;;;;;;;;;4189607;28;20113;-60
2023/03/21 01:49:44;;;;;;;3.95;3.85;;;;;;;;;;4190081;28;20048;-60
2023/03/21 01:52:08;;;;;;;5.35;5.05;;;;;;;;;;4188833;28;20060;-60
2023/03/21 01:54:38;;;;;;;4.10;4.00;;;;;;;;;;4189134;28;20040;-60
2023/03/21 01:57:01;;;;;;;4.40;4.30;;;;;;;;;;4189413;28;20078;-60
2023/03/21 01:59:51;;;;;;;4.43;4.35;;;;;;;;;;4190413;28;20322;-60
2023/03/21 02:02:16;;;;;;;5.10;5.00;;;;;;;;;;4192099;23;20187;-55
2023/03/21 02:04:37;;;;;;;3.58;3.58;;;;;;;;;;4208530;28;20257;-56
2023/03/21 02:07:02;;;;;;;4.00;4.00;;;;;;;;;;4208517;28;20125;-56
2023/03/21 02:09:24;;;;;;;4.25;4.15;;;;;;;;;;4207867;28;20082;-56
2023/03/21 02:11:45;;;;;;;3.70;3.60;;;;;;;;;;4208338;28;20103;-56
2023/03/21 02:14:15;;;;;;;4.15;3.75;;;;;;;;;;4208335;28;20047;-55
2023/03/21 02:17:11;;;;;;;3.15;3.15;;;;;;;;;;4208460;28;20052;-55
2023/03/21 02:19:31;;;;;;;;;;;;;;;;;;4199400;28;20060;-55
2023/03/21 02:22:17;;;;;;;3.83;3.83;;;;;;;;;;4208079;28;19924;-55
2023/03/21 02:24:40;;;;;;;4.03;3.90;;;;;;;;;;4210633;28;20071;-56
2023/03/21 02:27:22;;;;;;;3.70;3.60;;;;;;;;;;4208150;28;20453;-56
2023/03/21 02:29:45;;;;;;;5.22;5.13;;;;;;;;;;4208066;28;20048;-56
2023/03/21 02:32:25;;;;;;;4.38;4.28;;;;;;;;;;4208200;28;20047;-55
2023/03/21 02:35:03;;;;;;;4.05;4.05;;;;;;;;;;4208184;28;20139;-56
2023/03/21 02:37:28;;;;;;;3.33;3.33;;;;;;;;;;4191597;28;20109;-55
2023/03/21 02:40:17;;;;;;;5.53;3.95;;;;;;;;;;4190305;28;20295;-56
2023/03/21 02:42:47;;;;;;;3.33;3.22;;;;;;;;;;4191249;28;20083;-55
2023/03/21 02:45:26;;;;;;;3.85;3.85;;;;;;;;;;4191326;28;20055;-56
2023/03/21 02:47:51;;;;;;;3.17;3.15;;;;;;;;;;4190653;28;20043;-56
2023/03/21 02:50:15;;;;;;;2.72;2.63;;;;;;;;;;4190592;28;20048;-56
2023/03/21 02:52:36;;;;;;;2.63;2.63;;;;;;;;;;4190840;28;20044;-56
2023/03/21 02:55:00;;;;;;;2.95;2.95;;;;;;;;;;4189948;28;20105;-56
2023/03/21 02:57:20;;;;;;;3.75;3.65;;;;;;;;;;4191413;28;20056;-56
2023/03/21 02:59:43;;;;;;;3.58;3.58;;;;;;;;;;4191358;28;20122;-55
2023/03/21 03:02:15;;;;;;;3.30;3.30;;;;;;;;;;4193160;28;20130;-56
2023/03/21 03:04:35;;;;;;;4.55;4.45;;;;;;;;;;4191307;28;20274;-56
2023/03/21 03:07:00;;;;;;;3.60;3.60;;;;;;;;;;4191232;28;20047;-56
2023/03/21 03:09:28;;;;;;;3.15;3.15;;;;;;;;;;4191048;28;20052;-56
2023/03/21 03:11:51;;;;;;;3.03;2.85;;;;;;;;;;4191096;28;20251;-56
2023/03/21 03:14:17;;;;;;;3.45;3.35;;;;;;;;;;4191143;28;20052;-56
2023/03/21 03:16:58;;;;;;;3.25;3.25;;;;;;;;;;4190693;28;20071;-56
2023/03/21 03:19:29;;;;;;;3.10;3.10;;;;;;;;;;4191178;28;20048;-56
2023/03/21 03:22:09;;;;;;;3.72;3.72;;;;;;;;;;4190282;28;20056;-56
2023/03/21 03:24:39;;;;;;;3.67;3.58;;;;;;;;;;4190709;28;20048;-56
2023/03/21 03:27:02;;;;;;;3.58;3.47;;;;;;;;;;4190819;28;20371;-56
2023/03/21 03:29:23;;;;;;;3.28;3.17;;;;;;;;;;4191018;28;20043;-56
2023/03/21 03:32:07;;;;;;;3.28;3.28;;;;;;;;;;4189921;28;20074;-56
2023/03/21 03:34:39;;;;;;;2.80;2.80;;;;;;;;;;4189179;28;20080;-56
2023/03/21 03:37:03;;;;;;;3.75;3.65;;;;;;;;;;4190740;28;20048;-56
2023/03/21 03:39:26;;;;;;;3.70;3.70;;;;;;;;;;4190749;28;20374;-56
2023/03/21 03:41:51;;;;;;;2.88;2.88;;;;;;;;;;4190054;28;20071;-56
2023/03/21 03:44:32;;;;;;;3.83;3.33;;;;;;;;;;4190802;28;20104;-56
2023/03/21 03:47:12;;;;;;;3.95;3.95;;;;;;;;;;4190803;28;20181;-56
2023/03/21 03:49:53;;;;;;;3.85;3.58;;;;;;;;;;4190748;28;20048;-56
2023/03/21 03:52:19;;;;;;;4.10;3.72;;;;;;;;;;4190584;28;20064;-56
2023/03/21 03:54:42;;;;;;;4.22;4.13;;;;;;;;;;4189773;28;20071;-56
2023/03/21 03:57:03;;;;;;;3.85;3.72;;;;;;;;;;4190699;28;20040;-56
2023/03/21 03:59:24;;;;;;;4.03;4.03;;;;;;;;;;4190632;28;20087;-56
2023/03/21 04:01:45;;;;;;;3.30;3.30;;;;;;;;;;4190498;28;20151;-56
2023/03/21 04:04:06;;;;;;;4.13;4.03;;;;;;;;;;4190524;28;20052;-56
2023/03/21 04:06:33;;;;;;;3.55;3.45;;;;;;;;;;4190516;28;20040;-56
2023/03/21 04:08:53;;;;;;;3.42;3.40;;;;;;;;;;4190482;28;20048;-57
2023/03/21 04:11:15;;;;;;;2.35;2.35;;;;;;;;;;4190277;28;20048;-55
2023/03/21 04:13:35;;;;;;;4.40;4.40;;;;;;;;;;4190402;28;20079;-56
2023/03/21 04:15:55;;;;;;;3.72;3.72;;;;;;;;;;4190373;28;20048;-56
2023/03/21 04:18:16;;;;;;;3.40;3.30;;;;;;;;;;4190297;28;20087;-56
2023/03/21 04:20:36;;;;;;;3.88;3.78;;;;;;;;;;4190297;28;20078;-55
2023/03/21 04:22:57;;;;;;;4.05;3.95;;;;;;;;;;4190134;28;20234;-56
2023/03/21 04:25:18;;;;;;;3.90;3.90;;;;;;;;;;4189534;28;20386;-56
2023/03/21 04:27:54;;;;;;;4.13;4.03;;;;;;;;;;4189284;28;20247;-56
2023/03/21 04:30:14;;;;;;;4.40;4.20;;;;;;;;;;4190077;28;20052;-56
2023/03/21 04:32:38;;;;;;;3.42;3.30;;;;;;;;;;4190157;28;20055;-56
2023/03/21 04:34:58;;;;;;;4.20;4.10;;;;;;;;;;4188532;28;20275;-56
2023/03/21 04:37:19;;;;;;;3.72;3.63;;;;;;;;;;4190021;28;20040;-56
2023/03/21 04:39:40;;;;;;;2.92;2.92;;;;;;;;;;4189148;28;20056;-55
2023/03/21 04:42:00;;;;;;;3.38;3.28;;;;;;;;;;4189035;28;20052;-55
2023/03/21 04:44:20;;;;;;;4.85;4.85;;;;;;;;;;4189964;28;20048;-56
2023/03/21 04:46:41;;;;;;;3.55;3.45;;;;;;;;;;4189986;28;20086;-56
2023/03/21 04:49:01;;;;;;;3.70;3.70;;;;;;;;;;4189969;28;20294;-56
2023/03/21 04:51:22;;;;;;;3.60;3.42;;;;;;;;;;4189792;28;20110;-56
2023/03/21 04:53:44;;;;;;;3.13;3.03;;;;;;;;;;4189461;28;20284;-56
2023/03/21 04:56:05;;;;;;;3.63;3.38;;;;;;;;;;4189886;28;20052;-56
2023/03/21 04:58:25;;;;;;;3.40;3.30;;;;;;;;;;4189754;28;20040;-55
2023/03/21 05:00:46;;;;;;;4.47;4.38;;;;;;;;;;4189871;28;20072;-56
2023/03/21 05:03:10;;;;;;;6.13;6.03;;;;;;;;;;4189785;28;20047;-56
2023/03/21 05:05:30;;;;;;;5.88;5.78;;;;;;;;;;4188490;28;20239;-56
2023/03/21 05:07:51;;;;;;;4.15;3.95;;;;;;;;;;4189614;28;20090;-55
2023/03/21 05:10:11;;;;;;;4.15;4.05;;;;;;;;;;4188753;28;20048;-56
2023/03/21 05:12:31;;;;;;;4.53;4.43;;;;;;;;;;4189610;28;20052;-56
2023/03/21 05:14:52;;;;;;;4.30;4.20;;;;;;;;;;4189577;28;20272;-56
2023/03/21 05:17:21;;;;;;;3.97;3.95;;;;;;;;;;4189622;28;20075;-56
2023/03/21 05:19:41;;;;;;;3.85;3.75;;;;;;;;;;4189335;28;20283;-56
2023/03/21 05:22:05;;;;;;;3.55;3.35;;;;;;;;;;4188780;28;20083;-56
2023/03/21 05:24:26;;;;;;;5.13;4.80;;;;;;;;;;4189502;28;20048;-56
2023/03/21 05:26:49;;;;;;;7.20;4.93;;;;;;;;;;4189588;28;20104;-56
2023/03/21 05:29:10;;;;;;;6.28;5.88;;;;;;;;;;4189476;28;20044;-56
2023/03/21 05:31:30;;;;;;;11.75;9.73;;;;;;;;;;4189298;28;20088;-56
2023/03/21 05:33:50;;;;;;;11.82;9.73;;;;;;;;;;4188899;28;20044;-56
2023/03/21 05:36:11;;;;;;;12.30;9.55;;;;;;;;;;4189324;28;20040;-56
2023/03/21 05:38:31;;;;;;;8.30;7.57;;;;;;;;;;4188576;28;20075;-56
2023/03/21 05:40:53;;;;;;;4.45;4.35;;;;;;;;;;4189365;28;20155;-58
2023/03/21 05:43:13;;;;;;;5.15;5.05;;;;;;;;;;4188462;28;20113;-58
2023/03/21 05:45:33;;;;;;;5.43;5.32;;;;;;;;;;4188892;28;20056;-58
2023/03/21 05:47:54;;;;;;;5.15;4.75;;;;;;;;;;4188993;28;20358;-58
2023/03/21 05:50:14;;;;;;;5.45;5.25;;;;;;;;;;4189260;28;20102;-58
2023/03/21 05:52:35;;;;;;;5.50;5.05;;;;;;;;;;4189099;28;20067;-58
2023/03/21 05:54:55;;;;;;;5.82;5.55;;;;;;;;;;4187719;28;20112;-58
2023/03/21 05:57:18;;;;;;;7.13;6.57;;;;;;;;;;4189199;28;20048;-59
2023/03/21 05:59:38;;;;;;;7.43;6.85;;;;;;;;;;4189143;28;20389;-55
2023/03/21 06:01:58;;;;;;;9.95;9.55;;;;;;;;;;4189059;28;20087;-56
2023/03/21 06:04:18;;;;;;;9.32;8.65;;;;;;;;;;4189040;28;20044;-55
2023/03/21 06:06:39;;;;;;;8.07;7.13;;;;;;;;;;4189079;28;20044;-56
2023/03/21 06:09:00;;;;;;;6.38;5.82;;;;;;;;;;4187706;28;20122;-56
2023/03/21 06:11:25;;;;;;;5.45;5.28;;;;;;;;;;4188749;28;20056;-55
2023/03/21 06:13:46;;;;;;;7.72;7.35;;;;;;;;;;4189061;28;20241;-56
2023/03/21 06:16:06;;;;;;;6.35;5.28;;;;;;;;;;4188931;28;20240;-55
2023/03/21 06:18:27;;;;;;;7.30;6.97;;;;;;;;;;4188914;28;20043;-57
2023/03/21 06:20:47;;;;;;;6.85;6.65;;;;;;;;;;4188590;28;20094;-57
2023/03/21 06:23:07;;;;;;;5.43;5.25;;;;;;;;;;4188395;28;20048;-57
2023/03/21 06:25:27;;;;;;;6.22;5.70;;;;;;;;;;4188772;28;20106;-58
2023/03/21 06:27:47;;;;;;;4.55;4.45;;;;;;;;;;4187992;28;20052;-58
2023/03/21 06:30:08;;;;;;;5.55;5.45;;;;;;;;;;4187851;28;20068;-58
2023/03/21 06:32:29;;;;;;;5.00;4.90;;;;;;;;;;4187840;28;20047;-57
2023/03/21 06:34:50;;;;;;;4.93;4.72;;;;;;;;;;4188375;28;20044;-57
2023/03/21 06:37:10;;;;;;;5.18;4.60;;;;;;;;;;4188735;28;20051;-57
2023/03/21 06:39:31;;;;;;;4.05;3.95;;;;;;;;;;4188025;28;20048;-57
2023/03/21 06:41:52;;;;;;;4.53;4.43;;;;;;;;;;4188607;28;20095;-58
2023/03/21 06:44:12;;;;;;;7.53;7.32;;;;;;;;;;4187969;28;20047;-58
2023/03/21 06:46:33;;;;;;;4.30;4.18;;;;;;;;;;4188240;28;20401;-57
2023/03/21 06:48:53;;;;;;;4.75;4.15;;;;;;;;;;4189783;28;20044;-57
2023/03/21 06:51:14;;;;;;;3.85;3.85;;;;;;;;;;4191234;28;20048;-57
2023/03/21 06:53:34;;;;;;;4.45;4.35;;;;;;;;;;4191377;28;20044;-58
2023/03/21 06:55:56;;;;;;;4.00;3.03;;;;;;;;;;4190115;28;20059;-58
2023/03/21 06:58:16;;;;;;;3.95;3.83;;;;;;;;;;4191439;28;20048;-58
2023/03/21 07:00:36;;;;;;;3.70;3.55;;;;;;;;;;4190952;28;20048;-58
2023/03/21 07:02:56;;;;;;;4.43;4.28;;;;;;;;;;4190118;28;20104;-58
2023/03/21 07:05:17;;;;;;;4.50;4.18;;;;;;;;;;4191369;28;20056;-58
2023/03/21 07:07:37;;;;;;;4.47;4.25;;;;;;;;;;4191272;28;20087;-57
2023/03/21 07:09:57;;;;;;;3.95;3.88;;;;;;;;;;4190325;28;20113;-58
2023/03/21 07:12:17;;;;;;;4.78;4.68;;;;;;;;;;4194806;28;20052;-58
2023/03/21 07:14:37;;;;;;;4.75;4.55;;;;;;;;;;4191203;28;20058;-58
2023/03/21 07:16:58;;;;;;;3.70;3.60;;;;;;;;;;4191087;28;20043;-58
2023/03/21 07:19:18;;;;;;;4.07;3.97;;;;;;;;;;4190999;28;20120;-58
2023/03/21 07:21:38;;;;;;;7.97;7.45;;;;;;;;;;4191015;28;20087;-58
2023/03/21 07:23:58;;;;;;;9.07;8.32;;;;;;;;;;4190999;28;20090;-58
2023/03/21 07:26:19;;;;;;;6.70;6.50;;;;;;;;;;4190882;28;20048;-58
2023/03/21 07:28:40;;;;;;;5.82;5.57;;;;;;;;;;4190626;28;20067;-58
2023/03/21 07:31:02;;;;;;;4.85;4.75;;;;;;;;;;4190911;28;20118;-58
2023/03/21 07:33:23;;;;;;;4.38;4.25;;;;;;;;;;4190843;28;20040;-58
2023/03/21 07:35:43;;;;;;;3.75;3.65;;;;;;;;;;4190789;28;20052;-58
2023/03/21 07:38:04;;;;;;;6.88;6.47;;;;;;;;;;4190859;28;20087;-58
2023/03/21 07:40:24;;;;;;;6.55;6.15;;;;;;;;;;4190787;28;20420;-58
2023/03/21 07:42:45;;;;;;;5.55;5.18;;;;;;;;;;4190745;28;20048;-58
2023/03/21 07:45:07;;;;;;;6.75;6.45;;;;;;;;;;4190810;28;20079;-58
2023/03/21 07:47:28;;;;;;;4.78;4.63;;;;;;;;;;4189733;28;20052;-58
2023/03/21 07:49:48;;;;;;;7.53;7.22;;;;;;;;;;4189494;28;20037;-58
2023/03/21 07:52:09;;;;;;;6.00;5.80;;;;;;;;;;4192463;28;20056;-58
2023/03/21 07:54:29;;;;;;;5.68;5.47;;;;;;;;;;4190674;28;20371;-59
2023/03/21 07:56:49;;;;;;;8.20;7.72;;;;;;;;;;4190546;28;20098;-58
2023/03/21 07:59:09;;;;;;;2.63;2.63;;;;;;;;;;4190651;28;20231;-58
2023/03/21 08:01:30;;;;;;;5.80;5.60;;;;;;;;;;4189825;28;20056;-58
2023/03/21 08:03:52;;;;;;;2.55;2.45;;;;;;;;;;4190477;28;20054;-58
2023/03/21 08:06:12;;;;;;;2.40;2.40;;;;;;;;;;4190494;28;20291;-58
2023/03/21 08:08:33;;;;;;;2.38;2.38;;;;;;;;;;4190496;28;20302;-58
2023/03/21 08:10:53;;;;;;;2.30;2.30;;;;;;;;;;4190388;28;20068;-59
2023/03/21 08:13:13;;;;;;;3.53;3.42;;;;;;;;;;4190370;28;20043;-58
2023/03/21 08:15:33;;;;;;;4.95;4.65;;;;;;;;;;4190393;28;20389;-59
2023/03/21 08:17:54;;;;;;;4.57;4.38;;;;;;;;;;4190336;28;20064;-59
2023/03/21 08:20:15;;;;;;;4.38;4.07;;;;;;;;;;4190205;28;20087;-58
2023/03/21 08:22:36;;;;;;;3.10;3.00;;;;;;;;;;4190271;28;20044;-58
2023/03/21 08:24:56;;;;;;;2.85;2.85;;;;;;;;;;4190287;28;20105;-58
2023/03/21 08:27:16;;;;;;;3.20;3.05;;;;;;;;;;4189743;28;20044;-59
2023/03/21 08:29:39;;;;;;;5.35;5.20;;;;;;;;;;4190209;28;20228;-58
2023/03/21 08:31:59;;;;;;;3.22;3.17;;;;;;;;;;4190119;28;20248;-58
2023/03/21 08:34:21;;;;;;;3.28;3.10;;;;;;;;;;4190099;28;20363;-59
2023/03/21 08:36:42;;;;;;;2.95;2.95;;;;;;;;;;4189958;28;20066;-59
2023/03/21 08:39:04;;;;;;;9.35;4.18;;;;;;;;;;4190091;28;20044;-59
2023/03/21 08:41:25;;;;;;;3.03;2.78;;;;;;;;;;4190020;28;20301;-59
2023/03/21 08:43:45;;;;;;;2.35;2.25;;;;;;;;;;4189910;28;20131;-58
2023/03/21 08:46:06;;;;;;;3.20;3.20;;;;;;;;;;4188775;28;20055;-59
2023/03/21 08:48:26;;;;;;;3.53;3.53;;;;;;;;;;4190005;28;20142;-59
2023/03/21 08:50:46;;;;;;;2.80;2.80;;;;;;;;;;4189721;28;20108;-59
2023/03/21 08:53:06;;;;;;;2.65;2.45;;;;;;;;;;4189734;28;20047;-59
2023/03/21 08:55:27;;;;;;;2.88;2.72;;;;;;;;;;4189882;28;20083;-59
2023/03/21 08:57:47;;;;;;;2.55;2.35;;;;;;;;;;4189750;28;20087;-58
2023/03/21 09:00:12;;;;;;;3.60;3.50;;;;;;;;;;4189703;28;20358;-59
2023/03/21 09:02:32;;;;;;;3.47;3.38;;;;;;;;;;4189707;28;20067;-59
2023/03/21 09:04:53;;;;;;;3.20;3.10;;;;;;;;;;4189763;28;20151;-59
2023/03/21 09:07:16;;;;;;;3.17;3.08;;;;;;;;;;4189692;28;20073;-59
2023/03/21 09:09:37;;;;;;;3.13;3.03;;;;;;;;;;4189712;28;20071;-59
2023/03/21 09:11:57;;;;;;;3.08;3.08;;;;;;;;;;4188893;28;20076;-59
2023/03/21 09:14:17;;;;;;;3.33;3.22;;;;;;;;;;4189562;28;20048;-59
2023/03/21 09:16:40;;;;;;;3.50;3.38;;;;;;;;;;4189097;28;20044;-59
2023/03/21 09:18:59;;;;;;;2.53;2.53;;;;;;;;;;4189596;28;20052;-58
2023/03/21 09:21:20;;;;;;;3.50;3.30;;;;;;;;;;4189547;28;20076;-59
2023/03/21 09:23:40;;;;;;;3.33;3.22;;;;;;;;;;4189515;28;20091;-59
2023/03/21 09:26:00;;;;;;;4.55;4.45;;;;;;;;;;4189358;28;20239;-59
2023/03/21 09:28:23;;;;;;;3.50;3.30;;;;;;;;;;4189176;28;20048;-59
2023/03/21 09:30:43;;;;;;;3.00;3.00;;;;;;;;;;4188365;28;20235;-59
2023/03/21 09:33:11;;;;;;;2.63;2.60;;;;;;;;;;4189407;28;20047;-59
2023/03/21 09:35:32;;;;;;;2.25;2.25;;;;;;;;;;4188884;28;20404;-59
2023/03/21 09:37:53;;;;;;;2.80;2.60;;;;;;;;;;4189305;28;20080;-59
2023/03/21 09:40:33;;;;;;;4.20;4.07;;;;;;;;;;4188998;28;20148;-59
2023/03/21 09:43:01;;;;;;;2.00;2.00;;;;;;;;;;4189122;28;20056;-59
2023/03/21 09:45:36;;;;;;;3.08;2.97;;;;;;;;;;4188282;28;20094;-59
2023/03/21 09:47:58;;;;;;;3.75;3.63;;;;;;;;;;4189267;28;20048;-59
2023/03/21 09:50:26;;;;;;;3.13;3.03;;;;;;;;;;4189203;28;20071;-59
2023/03/21 09:52:57;;;;;;;3.55;3.45;;;;;;;;;;4189128;28;20375;-59
2023/03/21 09:55:25;;;;;;;6.88;2.88;;;;;;;;;;4189080;28;20071;-59
2023/03/21 09:57:47;;;;;;;3.03;2.92;;;;;;;;;;4189159;28;20108;-59
2023/03/21 10:00:13;;;;;;;2.70;2.63;;;;;;;;;;4188509;28;20232;-59
2023/03/21 10:02:37;;;;;;;3.15;3.05;;;;;;;;;;4189055;28;20123;-59
2023/03/21 10:04:59;;;;;;;3.65;3.55;;;;;;;;;;4188564;28;20040;-58
2023/03/21 10:07:19;;;;;;;3.70;3.40;;;;;;;;;;4189148;28;20401;-59
2023/03/21 10:09:40;;;;;;;2.38;2.28;;;;;;;;;;4189051;28;20051;-59
2023/03/21 10:12:07;;;;;;;2.85;2.75;;;;;;;;;;4188982;28;20276;-59
2023/03/21 10:14:45;;;;;;;3.28;3.15;;;;;;;;;;4188792;28;20086;-59
2023/03/21 10:17:06;;;;;;;3.95;3.42;;;;;;;;;;4189066;28;20239;-59
2023/03/21 10:19:26;;;;;;;4.38;4.28;;;;;;;;;;4188823;28;20379;-59
2023/03/21 10:21:48;;;;;;;3.08;2.97;;;;;;;;;;4188772;28;20044;-59
2023/03/21 10:24:24;;;;;;;2.83;2.72;;;;;;;;;;4189670;28;20052;-59
2023/03/21 10:26:45;;;;;;;3.67;3.58;;;;;;;;;;4191828;28;20052;-59
2023/03/21 10:29:05;;;;;;;2.90;2.83;;;;;;;;;;4191811;28;20083;-59
2023/03/21 10:31:28;;;;;;;3.42;3.33;;;;;;;;;;4191698;28;20043;-58
2023/03/21 10:33:49;;;;;;;2.95;2.95;;;;;;;;;;4191750;28;20598;-59
2023/03/21 10:36:18;;;;;;;3.10;3.00;;;;;;;;;;4191567;28;20083;-59
2023/03/21 10:38:45;;;;;;;4.25;2.70;;;;;;;;;;4191496;28;20044;-59
2023/03/21 10:41:05;;;;;;;3.67;3.47;;;;;;;;;;4191022;28;20052;-59
2023/03/21 10:43:25;;;;;;;3.40;3.28;;;;;;;;;;4191620;28;20063;-59
2023/03/21 10:45:47;;;;;;;2.22;2.17;;;;;;;;;;4191464;28;20111;-59
2023/03/21 10:48:07;;;;;;;3.50;3.40;;;;;;;;;;4190843;28;20237;-59
2023/03/21 10:50:29;;;;;;;3.33;3.13;;;;;;;;;;4191196;28;20078;-59
2023/03/21 10:52:50;;;;;;;2.97;2.88;;;;;;;;;;4191344;28;20052;-59
2023/03/21 10:55:20;;;;;;;2.72;2.65;;;;;;;;;;4191377;28;20044;-59
2023/03/21 10:57:40;;;;;;;3.17;3.08;;;;;;;;;;4191434;28;20075;-59
2023/03/21 11:00:11;;;;;;;2.92;2.83;;;;;;;;;;4191355;28;20375;-58
2023/03/21 11:02:37;;;;;;;2.92;2.72;;;;;;;;;;4191271;28;20048;-59
2023/03/21 11:05:03;;;;;;;3.70;3.53;;;;;;;;;;4190719;28;20077;-59
2023/03/21 11:07:29;;;;;;;3.13;2.92;;;;;;;;;;4191278;28;20044;-59
2023/03/21 11:09:53;;;;;;;2.63;2.53;;;;;;;;;;4190556;28;20146;-59
2023/03/21 11:12:15;;;;;;;3.13;3.03;;;;;;;;;;4190756;28;20104;-59
2023/03/21 11:14:35;;;;;;;2.45;2.35;;;;;;;;;;4190718;28;20040;-59
2023/03/21 11:16:55;;;;;;;2.45;2.35;;;;;;;;;;4191129;28;20051;-59
2023/03/21 11:19:16;;;;;;;4.10;2.88;;;;;;;;;;4190413;28;20085;-59
2023/03/21 11:21:37;;;;;;;2.80;2.80;;;;;;;;;;4190327;28;20080;-59
2023/03/21 11:23:57;;;;;;;2.90;2.75;;;;;;;;;;4191110;28;20067;-59
2023/03/21 11:26:42;;;;;;;2.15;2.15;;;;;;;;;;4190683;28;20044;-59
2023/03/21 11:29:21;;;;;;;2.17;2.17;;;;;;;;;;4191076;28;20397;-59
2023/03/21 11:31:41;;;;;;;2.70;2.58;;;;;;;;;;4190941;28;20112;-59
2023/03/21 11:34:04;;;;;;;3.20;3.10;;;;;;;;;;4190915;28;20083;-59
2023/03/21 11:36:39;;;;;;;2.17;2.08;;;;;;;;;;4189308;28;20048;-59
2023/03/21 11:39:12;;;;;;;5.25;2.50;;;;;;;;;;4190880;28;20220;-59
2023/03/21 11:41:33;;;;;;;2.45;2.45;;;;;;;;;;4189750;28;20048;-59
2023/03/21 11:43:54;;;;;;;2.30;1.77;;;;;;;;;;4190757;28;20074;-59
2023/03/21 11:46:14;;;;;;;1.95;1.85;;;;;;;;;;4190709;28;20052;-59
2023/03/21 11:48:43;;;;;;;2.20;2.03;;;;;;;;;;4190755;28;20069;-59
2023/03/21 11:51:06;;;;;;;3.08;1.98;;;;;;;;;;4190647;28;20052;-59
2023/03/21 11:53:40;;;;;;;2.45;2.28;;;;;;;;;;4189845;28;20082;-59
2023/03/21 11:56:10;;;;;;;1.77;1.60;;;;;;;;;;4190624;28;20044;-59
2023/03/21 11:58:30;;;;;;;1.60;1.60;;;;;;;;;;4190716;28;20103;-59
2023/03/21 12:01:08;;;;;;;2.30;2.08;;;;;;;;;;4190544;28;20056;-59
2023/03/21 12:03:36;;;;;;;1.50;1.40;;;;;;;;;;4190160;28;20374;-59
2023/03/21 12:06:30;;;;;;;2.10;2.00;;;;;;;;;;4190489;28;20239;-60
2023/03/21 12:08:57;;;;;;;1.80;1.73;;;;;;;;;;4190441;28;20039;-59
2023/03/21 12:11:40;;;;;;;2.30;2.10;;;;;;;;;;4188916;28;20040;-59
2023/03/21 12:14:19;;;;;;;1.92;1.42;;;;;;;;;;4200796;28;20087;-59
2023/03/21 12:16:42;;;;;;;1.38;1.35;;;;;;;;;;4195125;28;20050;-59
2023/03/21 12:19:11;;;;;;;1.40;1.40;;;;;;;;;;4197067;28;20423;-59
2023/03/21 12:21:43;;;;;;;3.97;3.65;;;;;;;;;;4199551;28;20051;-59
2023/03/21 12:24:10;;;;;;;1.92;1.83;;;;;;;;;;4197622;28;20059;-59
2023/03/21 12:26:45;;;;;;;1.30;1.30;;;;;;;;;;4197076;28;20073;-59
2023/03/21 12:29:24;;;;;;;1.52;1.52;;;;;;;;;;4199876;28;20044;-59
2023/03/21 12:31:44;;;;;;;3.40;2.05;;;;;;;;;;4198149;28;20397;-59
2023/03/21 12:34:15;;;;;;;1.40;1.40;;;;;;;;;;4199570;28;20399;-59
2023/03/21 12:36:50;;;;;;;2.03;1.50;;;;;;;;;;4195690;28;20051;-59
2023/03/21 12:39:16;;;;;;;1.58;1.58;;;;;;;;;;4199729;28;20397;-59
2023/03/21 12:41:42;;;;;;;1.30;1.30;;;;;;;;;;4200776;28;20063;-59
2023/03/21 12:44:08;;;;;;;2.00;1.80;;;;;;;;;;4198363;28;20131;-58
2023/03/21 12:46:37;;;;;;;1.10;1.10;;;;;;;;;;4200918;28;20052;-58
2023/03/21 12:49:01;;;;;;;1.30;1.30;;;;;;;;;;4199018;28;20047;-58
2023/03/21 12:51:25;;;;;;;1.45;1.45;;;;;;;;;;4191828;28;20048;-59
2023/03/21 12:54:04;;;;;;;1.42;1.33;;;;;;;;;;4189968;28;20047;-58
2023/03/21 12:56:30;;;;;;;1.40;1.40;;;;;;;;;;4189867;28;20048;-58
2023/03/21 12:58:54;;;;;;;1.10;1.10;;;;;;;;;;4189795;28;20052;-59
2023/03/21 13:01:16;;;;;;;1.30;1.20;;;;;;;;;;4189110;28;20052;-58
2023/03/21 13:03:46;;;;;;;1.10;1.10;;;;;;;;;;4189885;28;20362;-59
2023/03/21 13:06:07;;;;;;;1.40;1.40;;;;;;;;;;4187511;28;20075;-58
2023/03/21 13:08:38;;;;;;;3.53;1.40;;;;;;;;;;4189754;28;20044;-58
2023/03/21 13:10:58;;;;;;;5.30;4.90;;;;;;;;;;4189667;28;20122;-58
2023/03/21 13:13:24;;;;;;;2.50;1.35;;;;;;;;;;4189612;28;20051;-59
2023/03/21 13:15:59;;;;;;;1.50;1.38;;;;;;;;;;4189413;28;20056;-58
2023/03/21 13:18:25;;;;;;;1.40;1.40;;;;;;;;;;4189146;28;20432;-59
2023/03/21 13:20:49;;;;;;;1.83;1.60;;;;;;;;;;4188674;28;20705;-58
2023/03/21 13:23:12;;;;;;;1.75;1.73;;;;;;;;;;4189522;28;20271;-58
2023/03/21 13:25:32;;;;;;;;;;;;;;;;;;4189755;28;20071;-59
2023/03/21 13:27:54;;;;;;;1.48;1.10;;;;;;;;;;4183316;28;19962;-59
2023/03/21 13:30:14;;;;;;;1.25;1.10;;;;;;;;;;4189425;28;20147;-58
2023/03/21 13:32:35;;;;;;;2.25;1.23;;;;;;;;;;4189384;28;20052;-59
2023/03/21 13:35:01;;;;;;;1.00;1.00;;;;;;;;;;4189473;28;20051;-59
2023/03/21 13:37:22;;;;;;;1.10;1.00;;;;;;;;;;4189397;28;20039;-59
2023/03/21 13:39:44;;;;;;;1.27;1.00;;;;;;;;;;4189320;28;20044;-59
2023/03/21 13:42:05;;;;;;;1.30;1.30;;;;;;;;;;4188497;28;20052;-59
2023/03/21 13:44:43;;;;;;;1.20;0.90;;;;;;;;;;4189073;28;20240;-59
2023/03/21 13:47:05;;;;;;;2.67;1.10;;;;;;;;;;4188529;28;20039;-60
2023/03/21 13:49:31;;;;;;;16.43;1.80;;;;;;;;;;4188932;28;20044;-58
2023/03/21 13:51:52;;;;;;;2.00;1.80;;;;;;;;;;4189146;28;20247;-56
2023/03/21 13:54:17;;;;;;;1.00;1.00;;;;;;;;;;4189233;28;20070;-55
2023/03/21 13:56:46;;;;;;;1.00;1.00;;;;;;;;;;4189178;28;20056;-55
2023/03/21 13:59:09;;;;;;;1.95;1.00;;;;;;;;;;4190660;28;20119;-55
2023/03/21 14:01:29;;;;;;;0.90;0.90;;;;;;;;;;4191927;28;20082;-56
2023/03/21 14:03:57;;;;;;;1.58;1.30;;;;;;;;;;4191131;28;20083;-55
2023/03/21 14:06:18;;;;;;;1.70;1.35;;;;;;;;;;4191064;28;20056;-55
2023/03/21 14:08:40;;;;;;;1.20;1.20;;;;;;;;;;4192002;28;20036;-55
2023/03/21 14:11:03;;;;;;;1.23;1.20;;;;;;;;;;4192055;28;20048;-56
2023/03/21 14:13:25;;;;;;;1.02;0.90;;;;;;;;;;4191863;28;20064;-55
2023/03/21 14:15:48;;;;;;;1.10;1.00;;;;;;;;;;4191567;28;20087;-55
2023/03/21 14:18:18;;;;;;;1.10;1.10;;;;;;;;;;4191950;28;20043;-55
2023/03/21 14:20:59;;;;;;;1.20;1.10;;;;;;;;;;4191888;28;20090;-55
2023/03/21 14:23:20;;;;;;;0.90;0.90;;;;;;;;;;4191807;28;20083;-56